Time;durP1;ratioP1;P1;durP2;ratioP2;P2;SDS_P1;SDS_P2;PMS_P1;PMS_P2;Temp;Humidity;BMP_temperature;BMP_pressure;BME280_temperature;BME280_humidity;BME280_pressure;Samples;Min_cycle;Max_cycle;Signal;HPM_P1;HPM_P2
2024/01/10 00:00:47;;;;;;;149.45;54.78;;;-9.10;99.90;;;;;;2072560;28;20079;-73
2024/01/10 00:01:47;;;;;;;150.15;55.85;;;-9.10;99.90;;;;;;2076267;28;20133;-73
2024/01/10 00:02:48;;;;;;;149.15;54.97;;;-9.10;99.90;;;;;;2069252;28;20045;-73
2024/01/10 00:03:49;;;;;;;152.82;55.80;;;-9.10;99.90;;;;;;2071787;28;20078;-72
2024/01/10 00:04:49;;;;;;;157.50;57.00;;;-9.10;99.90;;;;;;2070072;28;20581;-73
2024/01/10 00:05:50;;;;;;;156.27;56.88;;;-9.10;99.90;;;;;;2067428;28;20034;-74
2024/01/10 00:06:50;;;;;;;161.63;58.88;;;-9.10;99.90;;;;;;2075223;28;20113;-74
2024/01/10 00:07:51;;;;;;;151.35;56.67;;;-9.10;99.90;;;;;;2071287;28;20079;-73
2024/01/10 00:08:51;;;;;;;134.60;53.53;;;-9.10;99.90;;;;;;2068872;28;20119;-74
2024/01/10 00:09:52;;;;;;;141.57;52.88;;;-9.10;99.90;;;;;;2070069;28;20590;-73
2024/01/10 00:10:54;;;;;;;131.40;52.53;;;-9.10;99.90;;;;;;2069154;28;20060;-74
2024/01/10 00:11:54;;;;;;;130.32;51.65;;;-9.10;99.90;;;;;;2069977;28;20026;-73
2024/01/10 00:12:55;;;;;;;132.50;51.55;;;-9.10;99.90;;;;;;2061355;28;20290;-73
2024/01/10 00:13:59;;;;;;;132.70;51.22;;;-9.10;99.90;;;;;;2069145;28;20064;-74
2024/01/10 00:15:00;;;;;;;135.43;53.03;;;-9.20;99.90;;;;;;2071106;28;20120;-74
2024/01/10 00:16:01;;;;;;;131.20;51.67;;;-9.20;99.90;;;;;;2067680;28;20326;-72
2024/01/10 00:17:01;;;;;;;130.18;52.17;;;-9.10;99.90;;;;;;2072788;28;20037;-74
2024/01/10 00:18:02;;;;;;;123.88;51.15;;;-9.10;99.90;;;;;;2069895;28;20040;-71
2024/01/10 00:19:03;;;;;;;119.03;49.33;;;-9.10;99.90;;;;;;2070916;28;20034;-72
2024/01/10 00:20:04;;;;;;;126.88;51.35;;;-9.10;99.90;;;;;;2073272;28;20403;-73
2024/01/10 00:21:05;;;;;;;127.18;51.20;;;-9.00;99.90;;;;;;2070138;28;20068;-74
2024/01/10 00:22:05;;;;;;;126.85;51.00;;;-9.10;99.90;;;;;;2071819;28;20287;-73
2024/01/10 00:23:06;;;;;;;115.13;49.35;;;-9.10;99.90;;;;;;2075195;28;20037;-72
2024/01/10 00:24:07;;;;;;;127.63;49.70;;;-9.10;99.90;;;;;;2069682;28;20083;-73
2024/01/10 00:25:07;;;;;;;126.38;51.17;;;-9.10;99.90;;;;;;2069000;28;20042;-73
2024/01/10 00:26:08;;;;;;;130.43;51.03;;;-9.10;99.90;;;;;;2072265;28;20040;-73
2024/01/10 00:27:10;;;;;;;126.60;50.40;;;-9.10;99.90;;;;;;2064008;28;20036;-73
2024/01/10 00:28:10;;;;;;;122.40;49.97;;;-9.10;99.90;;;;;;2065190;28;20021;-73
2024/01/10 00:29:11;;;;;;;128.35;51.92;;;-9.10;99.90;;;;;;2077742;28;20368;-73
2024/01/10 00:30:11;;;;;;;130.18;51.40;;;-9.10;99.90;;;;;;2071489;28;20029;-76
2024/01/10 00:31:13;;;;;;;129.73;51.47;;;-9.20;99.90;;;;;;2076675;28;20036;-76
2024/01/10 00:32:13;;;;;;;134.75;52.30;;;-9.20;99.90;;;;;;2071051;28;20045;-76
2024/01/10 00:33:14;;;;;;;125.75;51.55;;;-9.20;99.90;;;;;;2068777;28;20798;-76
2024/01/10 00:34:14;;;;;;;133.95;52.60;;;-9.30;99.90;;;;;;2075606;28;20026;-76
2024/01/10 00:35:15;;;;;;;129.77;52.65;;;-9.30;99.90;;;;;;2074324;28;20034;-77
2024/01/10 00:36:15;;;;;;;138.80;53.17;;;-9.30;99.90;;;;;;2071632;28;20029;-77
2024/01/10 00:37:16;;;;;;;131.00;51.75;;;-9.30;99.90;;;;;;2075987;28;20156;-76
2024/01/10 00:38:16;;;;;;;126.88;52.38;;;-9.30;99.90;;;;;;2075510;28;20204;-76
2024/01/10 00:39:17;;;;;;;131.75;51.13;;;-9.30;99.90;;;;;;2073495;28;20433;-77
2024/01/10 00:40:18;;;;;;;136.05;52.58;;;-9.30;99.90;;;;;;2070974;28;20565;-80
2024/01/10 00:41:18;;;;;;;126.50;50.28;;;-9.30;99.90;;;;;;2075690;28;20029;-80
2024/01/10 00:42:19;;;;;;;127.10;51.20;;;-9.40;99.90;;;;;;2067000;28;20036;-81
2024/01/10 00:43:19;;;;;;;129.38;51.72;;;-9.30;99.90;;;;;;2066424;28;20022;-81
2024/01/10 00:44:20;;;;;;;126.47;50.95;;;-9.30;99.90;;;;;;2071981;28;20025;-80
2024/01/10 00:45:20;;;;;;;126.57;50.88;;;-9.40;99.90;;;;;;2075073;28;20033;-81
2024/01/10 00:46:21;;;;;;;127.47;50.75;;;-9.40;99.90;;;;;;2070302;28;20030;-82
2024/01/10 00:47:21;;;;;;;126.95;50.25;;;-9.40;99.90;;;;;;2067817;28;20145;-81
2024/01/10 00:48:22;;;;;;;131.35;52.17;;;-9.40;99.90;;;;;;2067774;28;20038;-81
2024/01/10 00:49:22;;;;;;;123.40;50.78;;;-9.40;99.90;;;;;;2072249;28;20047;-81
2024/01/10 00:50:23;;;;;;;130.30;51.13;;;-9.40;99.90;;;;;;2069703;28;20030;-81
2024/01/10 00:51:23;;;;;;;124.38;50.13;;;-9.40;99.90;;;;;;2070041;28;20108;-82
2024/01/10 00:52:24;;;;;;;136.75;51.88;;;-9.40;99.90;;;;;;2075346;28;20475;-82
2024/01/10 00:53:24;;;;;;;127.05;50.88;;;-9.40;99.90;;;;;;2067621;28;20049;-81
2024/01/10 00:54:25;;;;;;;129.27;51.17;;;-9.30;99.90;;;;;;2066139;28;20049;-80
2024/01/10 00:55:25;;;;;;;133.07;51.60;;;-9.30;99.90;;;;;;2069880;28;20038;-81
2024/01/10 00:56:26;;;;;;;127.43;51.78;;;-9.30;99.90;;;;;;2069980;28;20030;-81
2024/01/10 00:57:26;;;;;;;122.07;50.45;;;-9.30;99.90;;;;;;2072968;28;20041;-80
2024/01/10 00:58:27;;;;;;;123.75;51.65;;;-9.30;99.90;;;;;;2063164;28;20085;-81
2024/01/10 00:59:27;;;;;;;132.20;50.88;;;-9.30;99.90;;;;;;2059004;28;20070;-80
2024/01/10 01:00:28;;;;;;;125.78;50.10;;;-9.40;99.90;;;;;;2072642;28;20030;-80
2024/01/10 01:01:29;;;;;;;126.70;48.92;;;-9.40;99.90;;;;;;2073181;28;20037;-81
2024/01/10 01:02:30;;;;;;;125.90;50.67;;;-9.40;99.90;;;;;;2070874;28;20752;-80
2024/01/10 01:03:30;;;;;;;122.82;49.28;;;-9.40;99.90;;;;;;2070999;28;20291;-81
2024/01/10 01:04:31;;;;;;;121.20;49.17;;;-9.40;99.90;;;;;;2064246;28;20031;-80
2024/01/10 01:05:31;;;;;;;119.90;48.13;;;-9.40;99.90;;;;;;2069874;28;20021;-82
2024/01/10 01:06:32;;;;;;;124.18;49.35;;;-9.40;99.90;;;;;;2074470;28;20032;-78
2024/01/10 01:07:33;;;;;;;115.85;47.78;;;-9.50;99.90;;;;;;2072536;28;20026;-79
2024/01/10 01:08:33;;;;;;;122.10;48.83;;;-9.50;99.90;;;;;;2072714;28;20040;-81
2024/01/10 01:09:34;;;;;;;124.82;50.40;;;-9.50;99.90;;;;;;2067981;28;20025;-80
2024/01/10 01:10:35;;;;;;;120.15;49.22;;;-9.50;99.90;;;;;;2066501;28;20845;-80
2024/01/10 01:11:35;;;;;;;123.65;50.95;;;-9.60;99.90;;;;;;2074774;28;20327;-80
2024/01/10 01:12:36;;;;;;;115.90;49.67;;;-9.50;99.90;;;;;;2066862;28;20098;-81
2024/01/10 01:13:36;;;;;;;121.57;47.72;;;-9.50;99.90;;;;;;2062764;28;20084;-81
2024/01/10 01:14:37;;;;;;;121.20;48.35;;;-9.50;99.90;;;;;;2063929;28;20038;-79
2024/01/10 01:15:38;;;;;;;123.78;49.90;;;-9.50;99.90;;;;;;2070571;28;20562;-77
2024/01/10 01:16:38;;;;;;;117.75;47.80;;;-9.50;99.90;;;;;;2068785;28;20484;-78
2024/01/10 01:17:39;;;;;;;128.35;49.65;;;-9.40;99.90;;;;;;2071334;28;20063;-75
2024/01/10 01:18:39;;;;;;;125.55;49.58;;;-9.40;99.90;;;;;;2064116;28;20083;-76
2024/01/10 01:19:40;;;;;;;123.40;48.90;;;-9.40;99.90;;;;;;2064804;28;20030;-76
2024/01/10 01:20:40;;;;;;;125.03;50.80;;;-9.40;99.90;;;;;;2079015;28;20029;-76
2024/01/10 01:21:41;;;;;;;117.43;47.08;;;-9.40;99.90;;;;;;2072779;28;20087;-76
2024/01/10 01:22:42;;;;;;;119.95;49.42;;;-9.40;99.90;;;;;;2071573;28;20038;-76
2024/01/10 01:23:43;;;;;;;122.05;48.90;;;-9.40;99.90;;;;;;2074913;28;20030;-76
2024/01/10 01:24:44;;;;;;;121.43;48.35;;;-9.40;99.90;;;;;;2072187;28;20018;-76
2024/01/10 01:25:44;;;;;;;112.30;47.75;;;-9.40;99.90;;;;;;2075450;28;20029;-75
2024/01/10 01:26:45;;;;;;;120.18;48.85;;;-9.40;99.90;;;;;;2078553;28;20544;-76
2024/01/10 01:27:45;;;;;;;120.22;48.95;;;-9.40;99.90;;;;;;2073252;28;20033;-76
2024/01/10 01:28:46;;;;;;;120.03;48.92;;;-9.40;99.90;;;;;;2072476;28;20029;-75
2024/01/10 01:29:46;;;;;;;127.88;50.17;;;-9.40;99.90;;;;;;2077027;28;20065;-76
2024/01/10 01:30:47;;;;;;;118.40;48.10;;;-9.40;99.90;;;;;;2071172;28;20064;-76
2024/01/10 01:31:47;;;;;;;119.63;49.22;;;-9.40;99.90;;;;;;2066796;28;20037;-75
2024/01/10 01:32:48;;;;;;;115.60;47.58;;;-9.40;99.90;;;;;;2076575;28;20034;-76
2024/01/10 01:33:48;;;;;;;126.65;50.58;;;-9.40;99.90;;;;;;2074628;28;20025;-76
2024/01/10 01:34:49;;;;;;;121.07;48.45;;;-9.40;99.90;;;;;;2076302;28;20111;-76
2024/01/10 01:35:50;;;;;;;120.88;48.83;;;-9.40;99.90;;;;;;2079919;28;20041;-76
2024/01/10 01:36:51;;;;;;;124.10;47.50;;;-9.50;99.90;;;;;;2075970;28;20818;-76
2024/01/10 01:37:52;;;;;;;116.95;48.30;;;-9.50;99.90;;;;;;2071914;28;20083;-76
2024/01/10 01:38:52;;;;;;;122.57;49.40;;;-9.50;99.90;;;;;;2076804;28;20434;-76
2024/01/10 01:39:53;;;;;;;117.88;48.60;;;-9.30;99.90;;;;;;2075877;28;20040;-76
2024/01/10 01:40:53;;;;;;;122.43;48.38;;;-9.30;99.90;;;;;;2077077;28;20038;-77
2024/01/10 01:41:54;;;;;;;120.90;48.60;;;-9.30;99.90;;;;;;2074081;28;20088;-76
2024/01/10 01:42:54;;;;;;;117.18;48.83;;;-9.40;99.90;;;;;;2068338;28;20101;-77
2024/01/10 01:43:55;;;;;;;126.65;49.58;;;-9.40;99.90;;;;;;2079086;28;20442;-75
2024/01/10 01:44:55;;;;;;;125.47;50.00;;;-9.40;99.90;;;;;;2069865;28;20069;-76
2024/01/10 01:45:56;;;;;;;113.57;48.17;;;-9.40;99.90;;;;;;2076139;28;20586;-75
2024/01/10 01:46:57;;;;;;;116.20;48.47;;;-9.40;99.90;;;;;;2068593;28;20034;-77
2024/01/10 01:47:58;;;;;;;121.28;48.97;;;-9.50;99.90;;;;;;2068548;28;20153;-75
2024/01/10 01:48:59;;;;;;;124.80;49.45;;;-9.50;99.90;;;;;;2072011;28;20287;-76
2024/01/10 01:50:00;;;;;;;121.25;48.97;;;-9.50;99.90;;;;;;2068351;28;20029;-76
2024/01/10 01:51:04;;;;;;;118.45;49.92;;;-9.50;99.90;;;;;;2071965;28;20334;-75
2024/01/10 01:52:05;;;;;;;119.57;48.40;;;-9.50;99.90;;;;;;2071229;28;20026;-76
2024/01/10 01:53:06;;;;;;;117.25;48.78;;;-9.50;99.90;;;;;;2075698;28;20818;-76
2024/01/10 01:54:08;;;;;;;127.22;50.28;;;-9.50;99.90;;;;;;2069932;28;20284;-75
2024/01/10 01:55:10;;;;;;;123.03;49.83;;;-9.50;99.90;;;;;;2078653;28;20257;-77
2024/01/10 01:56:12;;;;;;;124.32;49.30;;;-9.50;99.90;;;;;;2076001;28;20276;-77
2024/01/10 01:57:12;;;;;;;118.28;49.22;;;-9.50;99.90;;;;;;2075903;28;20264;-77
2024/01/10 01:58:13;;;;;;;121.30;50.28;;;-9.50;99.90;;;;;;2067636;28;20703;-76
2024/01/10 01:59:14;;;;;;;124.65;49.42;;;-9.50;99.90;;;;;;2070968;28;20038;-77
2024/01/10 02:00:15;;;;;;;118.63;49.35;;;-9.50;99.90;;;;;;2071115;28;20061;-74
2024/01/10 02:01:16;;;;;;;123.93;49.80;;;-9.50;99.90;;;;;;2068541;28;20057;-77
2024/01/10 02:02:18;;;;;;;120.43;48.90;;;-9.50;99.90;;;;;;2068453;28;20104;-77
2024/01/10 02:03:20;;;;;;;126.35;49.80;;;-9.50;99.90;;;;;;2076168;28;20279;-77
2024/01/10 02:04:21;;;;;;;121.85;48.25;;;-9.60;99.90;;;;;;2068436;28;20264;-78
2024/01/10 02:05:22;;;;;;;117.53;49.78;;;-9.60;99.90;;;;;;2075868;28;20824;-77
2024/01/10 02:06:23;;;;;;;124.20;49.58;;;-9.60;99.90;;;;;;2067575;28;20309;-76
2024/01/10 02:07:23;;;;;;;113.63;48.50;;;-9.60;99.90;;;;;;2072183;28;20036;-76
2024/01/10 02:08:24;;;;;;;120.25;50.47;;;-9.60;99.90;;;;;;2071761;28;20037;-75
2024/01/10 02:09:24;;;;;;;117.68;48.80;;;-9.50;99.90;;;;;;2077253;28;20783;-75
2024/01/10 02:10:25;;;;;;;115.60;49.63;;;-9.50;99.90;;;;;;2075385;28;20042;-76
2024/01/10 02:11:26;;;;;;;120.82;50.10;;;-9.50;99.90;;;;;;2073664;28;20040;-75
2024/01/10 02:12:27;;;;;;;119.57;49.30;;;-9.50;99.90;;;;;;2070307;28;20072;-74
2024/01/10 02:13:28;;;;;;;115.78;48.83;;;-9.50;99.90;;;;;;2077126;28;20269;-76
2024/01/10 02:14:29;;;;;;;123.47;49.42;;;-9.50;99.90;;;;;;2074637;28;20085;-76
2024/01/10 02:15:30;;;;;;;125.13;51.60;;;-9.50;99.90;;;;;;2069819;28;20670;-76
2024/01/10 02:16:31;;;;;;;124.35;51.53;;;-9.50;99.90;;;;;;2076254;28;20037;-77
2024/01/10 02:17:31;;;;;;;120.47;49.50;;;-9.50;99.90;;;;;;2075301;28;20071;-76
2024/01/10 02:18:32;;;;;;;119.80;50.13;;;-9.60;99.90;;;;;;2077187;28;20638;-76
2024/01/10 02:19:34;;;;;;;123.75;49.63;;;-9.60;99.90;;;;;;2072513;28;20045;-76
2024/01/10 02:20:35;;;;;;;122.85;49.42;;;-9.50;99.90;;;;;;2069475;28;20029;-76
2024/01/10 02:21:35;;;;;;;128.20;49.67;;;-9.50;99.90;;;;;;2068356;28;20273;-77
2024/01/10 02:22:36;;;;;;;115.47;48.60;;;-9.50;99.90;;;;;;2068670;28;20028;-77
2024/01/10 02:23:36;;;;;;;114.97;48.38;;;-9.50;99.90;;;;;;2072068;28;20032;-77
2024/01/10 02:24:37;;;;;;;127.82;49.83;;;-9.50;99.90;;;;;;2068892;28;20029;-77
2024/01/10 02:25:41;;;;;;;119.30;48.78;;;-9.60;99.90;;;;;;2076355;28;20025;-77
2024/01/10 02:26:42;;;;;;;129.57;50.20;;;-9.60;99.90;;;;;;2074410;28;20029;-77
2024/01/10 02:27:42;;;;;;;121.88;49.78;;;-9.60;99.90;;;;;;2067553;28;20786;-76
2024/01/10 02:28:43;;;;;;;125.70;50.30;;;-9.60;99.90;;;;;;2067707;28;20022;-76
2024/01/10 02:29:43;;;;;;;123.25;48.38;;;-9.60;99.90;;;;;;2069034;28;20022;-76
2024/01/10 02:30:44;;;;;;;118.32;48.65;;;-9.60;99.90;;;;;;2075140;28;20045;-76
2024/01/10 02:31:44;;;;;;;123.35;50.45;;;-9.60;99.90;;;;;;2073176;28;20295;-76
2024/01/10 02:32:45;;;;;;;127.80;51.95;;;-9.60;99.90;;;;;;2066035;28;20033;-77
2024/01/10 02:33:45;;;;;;;124.63;49.38;;;-9.60;99.90;;;;;;2067663;28;20057;-77
2024/01/10 02:34:46;;;;;;;123.32;49.63;;;-9.60;99.90;;;;;;2068323;28;20053;-76
2024/01/10 02:35:46;;;;;;;124.30;50.45;;;-9.60;99.90;;;;;;2068400;28;20045;-76
2024/01/10 02:36:47;;;;;;;123.82;50.83;;;-9.60;99.90;;;;;;2077025;28;20748;-75
2024/01/10 02:37:51;;;;;;;121.93;50.17;;;-9.60;99.90;;;;;;2079916;28;20041;-76
2024/01/10 02:38:51;;;;;;;123.53;50.50;;;-9.60;99.90;;;;;;2073133;28;20045;-76
2024/01/10 02:39:52;;;;;;;123.10;48.88;;;-9.70;99.90;;;;;;2074734;28;20292;-74
2024/01/10 02:40:53;;;;;;;122.03;49.15;;;-9.70;99.90;;;;;;2075732;28;20128;-75
2024/01/10 02:41:54;;;;;;;126.97;51.08;;;-9.70;99.90;;;;;;2070314;28;20124;-75
2024/01/10 02:42:54;;;;;;;122.82;50.60;;;-9.70;99.90;;;;;;2073940;28;20091;-76
2024/01/10 02:43:58;;;;;;;128.80;51.13;;;-9.70;99.90;;;;;;2076050;28;20048;-77
2024/01/10 02:44:59;;;;;;;120.85;49.38;;;-9.70;99.90;;;;;;2071789;28;20103;-77
2024/01/10 02:45:59;;;;;;;123.55;50.60;;;-9.70;99.90;;;;;;2074370;28;20354;-76
2024/01/10 02:47:00;;;;;;;129.95;51.70;;;-9.70;99.90;;;;;;2071857;28;20037;-77
2024/01/10 02:48:00;;;;;;;124.03;50.70;;;-9.70;99.90;;;;;;2068129;28;20070;-76
2024/01/10 02:49:01;;;;;;;122.05;49.53;;;-9.70;99.90;;;;;;2071503;28;20108;-77
2024/01/10 02:50:01;;;;;;;120.07;50.28;;;-9.70;99.90;;;;;;2071326;28;20084;-77
2024/01/10 02:51:02;;;;;;;122.88;49.35;;;-9.70;99.90;;;;;;2075998;28;20094;-77
2024/01/10 02:52:02;;;;;;;123.95;49.75;;;-9.70;99.90;;;;;;2071478;28;20077;-75
2024/01/10 02:53:03;;;;;;;121.75;49.08;;;-9.70;99.90;;;;;;2073926;28;20026;-76
2024/01/10 02:54:04;;;;;;;126.10;49.70;;;-9.70;99.90;;;;;;2073593;28;20412;-76
2024/01/10 02:55:04;;;;;;;122.97;48.10;;;-9.60;99.90;;;;;;2072932;28;20076;-76
2024/01/10 02:56:05;;;;;;;126.32;51.17;;;-9.60;99.90;;;;;;2073628;28;20094;-76
2024/01/10 02:57:06;;;;;;;126.03;51.03;;;-9.60;99.90;;;;;;2077326;28;20056;-76
2024/01/10 02:58:07;;;;;;;123.03;49.67;;;-9.60;99.90;;;;;;2071897;28;20168;-76
2024/01/10 02:59:07;;;;;;;125.68;50.30;;;-9.60;99.90;;;;;;2072160;28;20025;-76
2024/01/10 03:00:09;;;;;;;121.30;49.85;;;-9.50;99.90;;;;;;2072520;28;20034;-76
2024/01/10 03:01:09;;;;;;;122.65;49.08;;;-9.60;99.90;;;;;;2071142;28;20034;-75
2024/01/10 03:02:10;;;;;;;117.88;49.53;;;-9.60;99.90;;;;;;2076345;28;21094;-75
2024/01/10 03:03:11;;;;;;;119.00;48.72;;;-9.60;99.90;;;;;;2072520;28;20044;-76
2024/01/10 03:04:11;;;;;;;125.88;51.05;;;-9.70;99.90;;;;;;2069948;28;20032;-78
2024/01/10 03:05:12;;;;;;;127.95;50.88;;;-9.70;99.90;;;;;;2071326;28;20357;-76
2024/01/10 03:06:12;;;;;;;121.80;49.85;;;-9.80;99.90;;;;;;2070165;28;20433;-76
2024/01/10 03:07:13;;;;;;;129.20;50.70;;;-9.80;99.90;;;;;;2076449;28;20495;-76
2024/01/10 03:08:13;;;;;;;129.13;51.15;;;-9.80;99.90;;;;;;2076219;28;20041;-75
2024/01/10 03:09:15;;;;;;;118.18;49.75;;;-9.80;99.90;;;;;;2068775;28;20033;-76
2024/01/10 03:10:16;;;;;;;123.30;49.67;;;-9.80;99.90;;;;;;2067652;28;20064;-75
2024/01/10 03:11:16;;;;;;;122.68;49.97;;;-9.80;99.90;;;;;;2068017;28;20809;-75
2024/01/10 03:12:17;;;;;;;121.07;50.42;;;-9.80;99.90;;;;;;2068159;28;20034;-75
2024/01/10 03:13:17;;;;;;;119.28;49.15;;;-9.80;99.90;;;;;;2075992;28;20469;-76
2024/01/10 03:14:18;;;;;;;131.10;51.78;;;-9.80;99.90;;;;;;2068723;28;20022;-75
2024/01/10 03:15:18;;;;;;;129.75;50.47;;;-9.80;99.90;;;;;;2070340;28;20075;-76
2024/01/10 03:16:19;;;;;;;126.50;51.13;;;-9.80;99.90;;;;;;2072173;28;20439;-77
2024/01/10 03:17:19;;;;;;;130.10;50.45;;;-9.80;99.90;;;;;;2075322;28;20480;-75
2024/01/10 03:18:20;;;;;;;131.00;51.05;;;-9.80;99.90;;;;;;2068909;28;20044;-75
2024/01/10 03:19:20;;;;;;;132.40;51.22;;;-9.80;99.90;;;;;;2074600;28;20041;-76
2024/01/10 03:20:21;;;;;;;128.40;51.00;;;-9.80;99.90;;;;;;2069027;28;20064;-75
2024/01/10 03:21:24;;;;;;;126.28;50.95;;;-9.90;99.90;;;;;;2071320;28;20036;-76
2024/01/10 03:22:25;;;;;;;130.35;51.72;;;-9.90;99.90;;;;;;2070905;28;20026;-75
2024/01/10 03:23:27;;;;;;;120.07;47.95;;;-9.90;99.90;;;;;;2067138;28;20287;-75
2024/01/10 03:24:28;;;;;;;128.68;50.47;;;-9.80;99.90;;;;;;2072233;28;20030;-76
2024/01/10 03:25:28;;;;;;;136.30;51.28;;;-9.80;99.90;;;;;;2071857;28;20295;-75
2024/01/10 03:26:30;;;;;;;149.80;52.88;;;-9.80;99.90;;;;;;2068308;28;20045;-75
2024/01/10 03:27:30;;;;;;;134.40;51.60;;;-9.80;99.90;;;;;;2078839;28;20790;-75
2024/01/10 03:28:31;;;;;;;145.02;53.20;;;-9.80;99.90;;;;;;2075273;28;20279;-76
2024/01/10 03:29:31;;;;;;;136.32;52.25;;;-9.90;99.90;;;;;;2068041;28;20059;-75
2024/01/10 03:30:32;;;;;;;131.15;50.15;;;-9.80;99.90;;;;;;2074171;28;20033;-76
2024/01/10 03:31:33;;;;;;;126.55;49.97;;;-9.80;99.90;;;;;;2070850;28;20033;-76
2024/01/10 03:32:33;;;;;;;130.25;50.53;;;-9.80;99.90;;;;;;2074874;28;20036;-75
2024/01/10 03:33:34;;;;;;;113.88;48.38;;;-9.80;99.90;;;;;;2075364;28;20033;-75
2024/01/10 03:34:35;;;;;;;129.65;48.00;;;-9.80;99.90;;;;;;2079029;28;20036;-75
2024/01/10 03:35:35;;;;;;;133.27;51.05;;;-9.70;99.90;;;;;;2079316;28;20094;-75
2024/01/10 03:36:36;;;;;;;132.57;50.78;;;-9.70;99.90;;;;;;2067702;28;20346;-77
2024/01/10 03:37:36;;;;;;;126.20;50.65;;;-9.70;99.90;;;;;;2067890;28;20045;-76
2024/01/10 03:38:37;;;;;;;132.93;49.75;;;-9.70;99.90;;;;;;2075504;28;20029;-75
2024/01/10 03:39:38;;;;;;;142.45;51.38;;;-9.70;99.90;;;;;;2067751;28;20180;-76
2024/01/10 03:40:38;;;;;;;130.90;50.47;;;-9.70;99.90;;;;;;2067779;28;20563;-77
2024/01/10 03:41:39;;;;;;;123.60;49.65;;;-9.70;99.90;;;;;;2067796;28;20038;-77
2024/01/10 03:42:39;;;;;;;129.48;48.50;;;-9.70;99.90;;;;;;2069636;28;20030;-76
2024/01/10 03:43:40;;;;;;;130.23;49.97;;;-9.70;99.90;;;;;;2073291;28;20026;-77
2024/01/10 03:44:40;;;;;;;125.53;49.08;;;-9.70;99.90;;;;;;2075486;28;20036;-76
2024/01/10 03:45:41;;;;;;;125.75;49.80;;;-9.80;99.90;;;;;;2070253;28;20061;-76
2024/01/10 03:46:41;;;;;;;127.18;50.13;;;-9.80;99.90;;;;;;2072829;28;20416;-77
2024/01/10 03:47:42;;;;;;;124.25;48.95;;;-9.80;99.90;;;;;;2075823;28;20037;-76
2024/01/10 03:48:49;;;;;;;123.43;48.95;;;-9.90;99.90;;;;;;2067686;28;20033;-76
2024/01/10 03:49:49;;;;;;;121.13;48.40;;;-9.80;99.90;;;;;;2075248;28;20960;-77
2024/01/10 03:50:50;;;;;;;121.88;48.75;;;-9.80;99.90;;;;;;2079681;28;20295;-76
2024/01/10 03:51:50;;;;;;;123.70;49.45;;;-9.80;99.90;;;;;;2077558;28;20029;-76
2024/01/10 03:52:51;;;;;;;133.25;50.00;;;-9.80;99.90;;;;;;2075084;28;20091;-76
2024/01/10 03:53:51;;;;;;;143.82;52.45;;;-9.80;99.90;;;;;;2076889;28;20037;-76
2024/01/10 03:54:52;;;;;;;135.07;51.40;;;-9.90;99.90;;;;;;2073503;28;20029;-76
2024/01/10 03:55:53;;;;;;;136.85;51.13;;;-9.90;99.90;;;;;;2077023;28;20025;-77
2024/01/10 03:56:53;;;;;;;147.98;51.97;;;-9.90;99.90;;;;;;2072699;28;20037;-77
2024/01/10 03:57:53;;;;;;;121.53;48.78;;;-9.90;99.90;;;;;;2071581;28;20029;-77
2024/01/10 03:58:54;;;;;;;125.50;48.78;;;-9.90;99.90;;;;;;2067579;28;20491;-77
2024/01/10 03:59:55;;;;;;;125.07;48.25;;;-9.80;99.90;;;;;;2067619;28;20315;-76
2024/01/10 04:00:55;;;;;;;133.77;49.33;;;-9.90;99.90;;;;;;2058933;28;20404;-77
2024/01/10 04:01:56;;;;;;;127.25;49.58;;;-9.90;99.90;;;;;;2066744;28;20034;-76
2024/01/10 04:02:56;;;;;;;129.23;49.88;;;-9.90;99.90;;;;;;2070431;28;20049;-76
2024/01/10 04:03:57;;;;;;;127.40;49.33;;;-9.90;99.90;;;;;;2070429;28;20113;-76
2024/01/10 04:04:58;;;;;;;125.50;49.38;;;-9.90;99.90;;;;;;2072623;28;20026;-77
2024/01/10 04:05:58;;;;;;;124.50;48.58;;;-9.90;99.90;;;;;;2067466;28;20022;-76
2024/01/10 04:06:59;;;;;;;128.40;49.15;;;-10.00;99.90;;;;;;2067420;28;20045;-76
2024/01/10 04:07:59;;;;;;;120.18;48.00;;;-10.00;99.90;;;;;;2067564;28;20040;-75
2024/01/10 04:09:00;;;;;;;129.05;50.10;;;-10.00;99.90;;;;;;2067664;28;20038;-76
2024/01/10 04:10:02;;;;;;;130.05;49.30;;;-10.00;99.90;;;;;;2068564;28;20453;-75
2024/01/10 04:11:03;;;;;;;121.55;47.95;;;-10.00;99.90;;;;;;2077753;28;20299;-75
2024/01/10 04:12:04;;;;;;;128.45;49.75;;;-10.00;99.90;;;;;;2078216;28;20295;-75
2024/01/10 04:13:05;;;;;;;122.45;48.67;;;-10.00;99.90;;;;;;2071585;28;20280;-76
2024/01/10 04:14:06;;;;;;;128.23;48.20;;;-10.10;99.90;;;;;;2066926;28;20476;-76
2024/01/10 04:15:07;;;;;;;132.80;49.63;;;-10.10;99.90;;;;;;2067524;28;20034;-76
2024/01/10 04:16:07;;;;;;;118.22;48.08;;;-10.20;99.90;;;;;;2067668;28;20273;-77
2024/01/10 04:17:09;;;;;;;126.03;48.42;;;-10.10;99.90;;;;;;2074970;28;20034;-77
2024/01/10 04:18:10;;;;;;;122.88;48.78;;;-10.20;99.90;;;;;;2070758;28;20097;-76
2024/01/10 04:19:10;;;;;;;118.60;47.03;;;-10.20;99.90;;;;;;2067634;28;20970;-76
2024/01/10 04:20:11;;;;;;;124.07;48.30;;;-10.20;99.90;;;;;;2074864;28;20273;-75
2024/01/10 04:21:11;;;;;;;126.07;50.03;;;-10.20;99.90;;;;;;2074963;28;20033;-75
2024/01/10 04:22:12;;;;;;;126.45;48.53;;;-10.20;99.90;;;;;;2075847;28;20093;-75
2024/01/10 04:23:12;;;;;;;124.80;48.40;;;-10.20;99.90;;;;;;2074425;28;20060;-76
2024/01/10 04:24:13;;;;;;;131.70;49.15;;;-10.20;99.90;;;;;;2074731;28;20036;-76
2024/01/10 04:25:13;;;;;;;142.82;51.70;;;-10.20;99.90;;;;;;2067426;28;20034;-75
2024/01/10 04:26:14;;;;;;;135.27;52.40;;;-10.20;99.90;;;;;;2073808;28;20030;-76
2024/01/10 04:27:15;;;;;;;131.68;50.33;;;-10.20;99.90;;;;;;2074876;28;20070;-75
2024/01/10 04:28:15;;;;;;;126.78;48.97;;;-10.20;99.90;;;;;;2076017;28;20441;-76
2024/01/10 04:29:16;;;;;;;122.72;47.95;;;-10.20;99.90;;;;;;2070953;28;20040;-74
2024/01/10 04:30:16;;;;;;;121.65;48.30;;;-10.20;99.90;;;;;;2069249;28;20048;-75
2024/01/10 04:31:17;;;;;;;115.75;47.63;;;-10.20;99.90;;;;;;2071917;28;20022;-75
2024/01/10 04:32:18;;;;;;;122.70;48.45;;;-10.20;99.90;;;;;;2074798;28;20033;-75
2024/01/10 04:33:18;;;;;;;115.38;46.10;;;-10.20;99.90;;;;;;2068274;28;20032;-75
2024/01/10 04:34:19;;;;;;;127.90;48.03;;;-10.20;99.90;;;;;;2078706;28;20038;-76
2024/01/10 04:35:19;;;;;;;124.60;48.50;;;-10.20;99.90;;;;;;2072271;28;20037;-76
2024/01/10 04:36:20;;;;;;;130.63;49.08;;;-10.20;99.90;;;;;;2071810;28;20044;-76
2024/01/10 04:37:20;;;;;;;131.93;49.30;;;-10.20;99.90;;;;;;2078401;28;20057;-76
2024/01/10 04:38:21;;;;;;;119.90;47.67;;;-10.10;99.90;;;;;;2078887;28;20028;-77
2024/01/10 04:39:22;;;;;;;119.38;47.72;;;-10.20;99.90;;;;;;2076575;28;20040;-76
2024/01/10 04:40:22;;;;;;;121.40;47.72;;;-10.20;99.90;;;;;;2073648;28;20146;-75
2024/01/10 04:41:23;;;;;;;121.35;47.17;;;-10.20;99.90;;;;;;2067646;28;20456;-75
2024/01/10 04:42:23;;;;;;;120.03;47.85;;;-10.20;99.90;;;;;;2067504;28;20033;-75
2024/01/10 04:43:24;;;;;;;117.47;46.63;;;-10.20;99.90;;;;;;2067394;28;20060;-75
2024/01/10 04:44:24;;;;;;;125.40;49.00;;;-10.20;99.90;;;;;;2075251;28;20032;-75
2024/01/10 04:45:25;;;;;;;120.25;49.05;;;-10.20;99.90;;;;;;2069993;28;20120;-75
2024/01/10 04:46:25;;;;;;;128.65;48.95;;;-10.20;99.90;;;;;;2073999;28;20109;-75
2024/01/10 04:47:26;;;;;;;133.75;51.65;;;-10.20;99.90;;;;;;2070023;28;20036;-76
2024/01/10 04:48:26;;;;;;;126.50;50.47;;;-10.10;99.90;;;;;;2070662;28;20029;-76
2024/01/10 04:49:27;;;;;;;126.18;49.33;;;-10.10;99.90;;;;;;2076027;28;20080;-76
2024/01/10 04:50:27;;;;;;;139.30;51.55;;;-10.20;99.90;;;;;;2075298;28;20042;-76
2024/01/10 04:51:28;;;;;;;149.48;51.00;;;-10.10;99.90;;;;;;2073474;28;20041;-76
2024/01/10 04:52:28;;;;;;;122.32;47.67;;;-10.10;99.90;;;;;;2075307;28;20025;-76
2024/01/10 04:53:29;;;;;;;145.73;49.92;;;-10.10;99.90;;;;;;2071860;28;20030;-76
2024/01/10 04:54:29;;;;;;;126.80;47.30;;;-10.10;99.90;;;;;;2073036;28;20034;-76
2024/01/10 04:55:30;;;;;;;139.25;50.72;;;-10.10;99.90;;;;;;2075216;28;20086;-78
2024/01/10 04:56:31;;;;;;;131.75;49.83;;;-10.10;99.90;;;;;;2069943;28;20080;-75
2024/01/10 04:57:31;;;;;;;127.65;48.97;;;-10.10;99.90;;;;;;2072180;28;20109;-76
2024/01/10 04:58:34;;;;;;;133.65;49.42;;;-10.10;99.90;;;;;;2068492;28;20060;-76
2024/01/10 04:59:34;;;;;;;133.82;51.05;;;-10.10;99.90;;;;;;2075930;28;20025;-75
2024/01/10 05:00:35;;;;;;;131.75;50.70;;;-10.10;99.90;;;;;;2071277;28;20371;-76
2024/01/10 05:01:37;;;;;;;148.20;52.53;;;-10.10;99.90;;;;;;2067665;28;20025;-77
2024/01/10 05:02:37;;;;;;;159.02;55.33;;;-10.10;99.90;;;;;;2070873;28;20041;-76
2024/01/10 05:03:38;;;;;;;142.77;52.38;;;-10.10;99.90;;;;;;2067555;28;20284;-77